PWSweather.com
Personal Weather Stations
Station Observations

OlomoucCZ

Lat: 49.5936202181, Lon: 17.2276005149

Elevation: 752

Station Type: Davis Vantage Pro 2 Activ

http://infopocasi-olomouc.cz

Latest ConditionsUpdated 9:30:03 PM GMT+01:01 Sunday, Jan 19, 2020
Currently Today's Max Today's Min Today's Average
Temperature 35.4°F1.9°C 36.1°F2.3°C 31.4°F-0.3°C 33.9°F1.1°C
Dew Point 33.8°F1.0°C 34.8°F1.6°C 30.7°F-0.7°C 32.8°F0.4°C
Winds 4.6 mph NW7.4 kmh NW 10.4 mph -16.7 kmh - - 4.4 mph 7.1 kmh
Wind Gusts 6.9 mph11.1 kmh 13.8 mph22.2 kmh - -
Humidity 94% 97% 94% 96%
Pressure 30.64 in1037.6 mb 30.64 in1037.6 mb 30.30 in1026.1 mb -
Precipitation - 0.11 in2.8 mm - -
Hour Temp Dew Point Humidity Winds Wind Gusts Pressure Precip Precip Rate Daily Precip Total
09:30 PM 35.4°F1.9°C 33.8°F1.0°C 94% 4.6 mph NW7.4 kmh NW 6.9 mph11.1 kmh 30.64 in1037.6 mb - 0.00 in0.0 mm 0.11 in2.8 mm
09:00 PM 35.3°F1.8°C 33.7°F0.9°C 94% 6.9 mph NW11.1 kmh NW 9.2 mph14.8 kmh 30.63 in1037.3 mb - 0.00 in0.0 mm 0.11 in2.8 mm
08:30 PM 35.1°F1.7°C 33.9°F1.1°C 95% 4.6 mph NW7.4 kmh NW 10.4 mph16.7 kmh 30.62 in1036.9 mb - 0.00 in0.0 mm 0.11 in2.8 mm
08:00 PM 34.9°F1.6°C 33.6°F0.9°C 95% 8.1 mph WNW13.0 kmh WNW 9.2 mph14.8 kmh 30.60 in1036.2 mb - 0.00 in0.0 mm 0.11 in2.8 mm
07:30 PM 34.7°F1.5°C 33.4°F0.8°C 95% 8.1 mph W13.0 kmh W 11.5 mph18.5 kmh 30.59 in1035.9 mb - 0.00 in0.0 mm 0.11 in2.8 mm
07:00 PM 34.6°F1.4°C 33.3°F0.7°C 95% 9.2 mph WNW14.8 kmh WNW 12.7 mph20.4 kmh 30.58 in1035.6 mb - 0.00 in0.0 mm 0.11 in2.8 mm
06:30 PM 34.9°F1.6°C 33.6°F0.9°C 95% 8.1 mph WNW13.0 kmh WNW 9.2 mph14.8 kmh 30.57 in1035.2 mb - 0.01 in0.3 mm 0.11 in2.8 mm
06:00 PM 35.2°F1.8°C 33.6°F0.9°C 94% 10.4 mph WNW16.7 kmh WNW 13.8 mph22.2 kmh 30.56 in1034.9 mb - 0.02 in0.5 mm 0.11 in2.8 mm
05:30 PM 35.3°F1.8°C 33.8°F1.0°C 94% 6.9 mph WNW11.1 kmh WNW 10.4 mph16.7 kmh 30.55 in1034.5 mb - 0.02 in0.5 mm 0.10 in2.5 mm
05:00 PM 35.6°F2.0°C 34.1°F1.2°C 94% 8.1 mph WNW13.0 kmh WNW 11.5 mph18.5 kmh 30.54 in1034.2 mb - 0.01 in0.3 mm 0.09 in2.3 mm
04:30 PM 35.6°F2.0°C 34.0°F1.1°C 94% 8.1 mph NW13.0 kmh NW 11.5 mph18.5 kmh 30.52 in1033.5 mb - 0.01 in0.3 mm 0.09 in2.3 mm
04:00 PM 35.7°F2.1°C 34.2°F1.2°C 94% 8.1 mph NW13.0 kmh NW 12.7 mph20.4 kmh 30.50 in1032.8 mb - 0.00 in0.0 mm 0.08 in2.0 mm
03:30 PM 36.1°F2.3°C 34.5°F1.4°C 94% 4.6 mph NW7.4 kmh NW 4.6 mph7.4 kmh 30.50 in1032.8 mb - 0.00 in0.0 mm 0.08 in2.0 mm
03:00 PM 36.1°F2.3°C 34.5°F1.4°C 94% 6.9 mph NW11.1 kmh NW 8.1 mph13.0 kmh 30.48 in1032.2 mb - 0.00 in0.0 mm 0.08 in2.0 mm
02:30 PM 36.0°F2.2°C 34.5°F1.4°C 94% 5.8 mph WNW9.3 kmh WNW 8.1 mph13.0 kmh 30.48 in1032.2 mb - 0.00 in0.0 mm 0.08 in2.0 mm
02:00 PM 36.1°F2.3°C 34.5°F1.4°C 94% 6.9 mph W11.1 kmh W 11.5 mph18.5 kmh 30.46 in1031.5 mb - 0.00 in0.0 mm 0.08 in2.0 mm
01:30 PM 36.1°F2.3°C 34.8°F1.6°C 95% 6.9 mph WNW11.1 kmh WNW 10.4 mph16.7 kmh 30.46 in1031.5 mb - 0.00 in0.0 mm 0.08 in2.0 mm
01:00 PM 36.1°F2.3°C 34.8°F1.6°C 95% 4.6 mph WNW7.4 kmh WNW 5.8 mph9.3 kmh 30.46 in1031.5 mb - 0.00 in0.0 mm 0.08 in2.0 mm
12:30 PM 35.8°F2.1°C 34.8°F1.6°C 96% 4.6 mph NW7.4 kmh NW 8.1 mph13.0 kmh 30.45 in1031.2 mb - 0.00 in0.0 mm 0.08 in2.0 mm
12:00 PM 35.3°F1.8°C 34.5°F1.4°C 97% 6.9 mph WNW11.1 kmh WNW 9.2 mph14.8 kmh 30.45 in1031.2 mb - 0.00 in0.0 mm 0.08 in2.0 mm
11:30 AM 34.7°F1.5°C 33.9°F1.1°C 97% 4.6 mph WNW7.4 kmh WNW 6.9 mph11.1 kmh 30.44 in1030.8 mb - 0.00 in0.0 mm 0.08 in2.0 mm
11:00 AM 34.2°F1.2°C 33.4°F0.8°C 97% 4.6 mph NW7.4 kmh NW 6.9 mph11.1 kmh 30.44 in1030.8 mb - 0.01 in0.3 mm 0.08 in2.0 mm
10:30 AM 33.8°F1.0°C 33.0°F0.6°C 97% 2.3 mph NW3.7 kmh NW 3.5 mph5.6 kmh 30.43 in1030.5 mb - 0.02 in0.5 mm 0.08 in2.0 mm
10:00 AM 33.7°F0.9°C 32.9°F0.5°C 97% 3.5 mph NW5.6 kmh NW 4.6 mph7.4 kmh 30.43 in1030.5 mb - 0.02 in0.5 mm 0.07 in1.8 mm
09:30 AM 33.7°F0.9°C 32.9°F0.5°C 97% 4.6 mph WNW7.4 kmh WNW 6.9 mph11.1 kmh 30.41 in1029.8 mb - 0.02 in0.5 mm 0.06 in1.5 mm
09:00 AM 33.6°F0.9°C 32.8°F0.4°C 97% 4.6 mph WNW7.4 kmh WNW 6.9 mph11.1 kmh 30.41 in1029.8 mb - 0.02 in0.5 mm 0.06 in1.5 mm
08:30 AM 33.4°F0.8°C 32.6°F0.3°C 97% 4.6 mph WNW7.4 kmh WNW 9.2 mph14.8 kmh 30.40 in1029.5 mb - 0.02 in0.5 mm 0.05 in1.3 mm
08:00 AM 33.1°F0.6°C 32.3°F0.2°C 97% 4.6 mph W7.4 kmh W 8.1 mph13.0 kmh 30.38 in1028.8 mb - 0.02 in0.5 mm 0.05 in1.3 mm
07:30 AM 33.0°F0.6°C 32.2°F0.1°C 97% 2.3 mph NW3.7 kmh NW 3.5 mph5.6 kmh 30.37 in1028.4 mb - 0.02 in0.5 mm 0.03 in0.8 mm
07:00 AM 32.8°F0.4°C 32.0°F0.0°C 97% 2.3 mph WNW3.7 kmh WNW 3.5 mph5.6 kmh 30.36 in1028.1 mb - 0.02 in0.5 mm 0.02 in0.5 mm
06:30 AM 32.5°F0.3°C 31.7°F-0.2°C 97% 2.3 mph WNW3.7 kmh WNW 3.5 mph5.6 kmh 30.36 in1028.1 mb - 0.02 in0.5 mm 0.02 in0.5 mm
06:00 AM 32.3°F0.2°C 31.5°F-0.3°C 97% Calm Calm -- 30.36 in1028.1 mb - 0.01 in0.3 mm 0.01 in0.3 mm
05:30 AM 32.1°F0.1°C 31.3°F-0.4°C 97% Calm Calm -- 30.34 in1027.4 mb - 0.00 in0.0 mm 0.00 in0.0 mm
05:00 AM 31.9°F-0.1°C 31.1°F-0.5°C 97% Calm Calm 1.2 mph1.9 kmh 30.33 in1027.1 mb - 0.00 in0.0 mm 0.00 in0.0 mm
04:30 AM 31.8°F-0.1°C 31.1°F-0.5°C 97% 1.2 mph WNW1.9 kmh WNW 1.2 mph1.9 kmh 30.32 in1026.8 mb - 0.00 in0.0 mm 0.00 in0.0 mm
04:00 AM 32.0°F0.0°C 31.2°F-0.4°C 97% 1.2 mph WNW1.9 kmh WNW 2.3 mph3.7 kmh 30.31 in1026.4 mb - 0.00 in0.0 mm 0.00 in0.0 mm
03:30 AM 31.8°F-0.1°C 31.0°F-0.6°C 97% 2.3 mph WNW3.7 kmh WNW 3.5 mph5.6 kmh 30.31 in1026.4 mb - 0.00 in0.0 mm 0.00 in0.0 mm
03:00 AM 31.6°F-0.2°C 30.8°F-0.7°C 97% 2.3 mph WNW3.7 kmh WNW 3.5 mph5.6 kmh 30.31 in1026.4 mb - 0.00 in0.0 mm 0.00 in0.0 mm
02:30 AM 31.6°F-0.2°C 30.8°F-0.7°C 97% 1.2 mph WNW1.9 kmh WNW 2.3 mph3.7 kmh 30.31 in1026.4 mb - 0.00 in0.0 mm 0.00 in0.0 mm
02:00 AM 31.7°F-0.2°C 30.9°F-0.6°C 97% 1.2 mph WNW1.9 kmh WNW 2.3 mph3.7 kmh 30.31 in1026.4 mb - 0.00 in0.0 mm 0.00 in0.0 mm
01:30 AM 31.7°F-0.2°C 30.9°F-0.6°C 97% 1.2 mph WNW1.9 kmh WNW 2.3 mph3.7 kmh 30.31 in1026.4 mb - 0.00 in0.0 mm 0.00 in0.0 mm
01:00 AM 31.6°F-0.2°C 30.8°F-0.7°C 97% 2.3 mph WNW3.7 kmh WNW 3.5 mph5.6 kmh 30.30 in1026.1 mb - 0.00 in0.0 mm 0.00 in0.0 mm
12:30 AM 31.5°F-0.3°C 30.7°F-0.7°C 97% 2.3 mph WNW3.7 kmh WNW 3.5 mph5.6 kmh 30.30 in1026.1 mb - 0.00 in0.0 mm 0.00 in0.0 mm
12:00 AM 31.4°F-0.3°C 30.7°F-0.7°C 97% 1.2 mph WNW1.9 kmh WNW 3.5 mph5.6 kmh 30.30 in1026.1 mb - 0.00 in0.0 mm 0.00 in0.0 mm